Terminal Aerodrome Forecast
Issued by NWS Twin Cities, MN

Home | Current Version | Previous Version | Text Only | Print | Product List | Glossary Off
Versions: 1 2 3 4 5 6 7 8 9 10 11 12 13 14 15

000
FTUS43 KMPX 241151
TAFSTC
TAF
KSTC 241151Z 2412/2512 21003KT P6SM BKN007 OVC015
     FM241330 27005KT P6SM BKN015
     FM241500 29009KT P6SM FEW025 SCT100
     FM241800 28012G18KT P6SM SKC
     FM250100 28005KT P6SM SCT250=

USA.gov is the U.S. government's official web portal to all federal, state and local government web resources and services.